Time;durP1;ratioP1;P1;durP2;ratioP2;P2;SDS_P1;SDS_P2;PMS_P1;PMS_P2;Temp;Humidity;BMP_temperature;BMP_pressure;BME280_temperature;BME280_humidity;BME280_pressure;Samples;Min_cycle;Max_cycle;Signal;HPM_P1;HPM_P2
2022/07/02 00:00:47;;;;;;;;;;;;;;;;;;5033917;28;771;-69
2022/07/02 00:03:13;;;;;;;;;;;;;;;;;;5032097;28;1346;-69
2022/07/02 00:05:47;;;;;;;;;;;;;;;;;;5033469;28;1418;-70
2022/07/02 00:08:15;;;;;;;;;;;;;;;;;;5032895;28;1051;-69
2022/07/02 00:10:41;;;;;;;;;;;;;;;;;;5031926;28;1665;-69
2022/07/02 00:13:08;;;;;;;;;;;;;;;;;;5033289;28;1914;-70
2022/07/02 00:15:34;;;;;;;;;;;;;;;;;;5033399;28;870;-69
2022/07/02 00:18:00;;;;;;;;;;;;;;;;;;5032556;28;1381;-69
2022/07/02 00:20:26;;;;;;;;;;;;;;;;;;5032967;28;1104;-69
2022/07/02 00:22:52;;;;;;;;;;;;;;;;;;5033364;28;1072;-69
2022/07/02 00:25:20;;;;;;;;;;;;;;;;;;5033194;28;778;-69
2022/07/02 00:27:46;;;;;;;;;;;;;;;;;;5031144;28;1517;-70
2022/07/02 00:30:12;;;;;;;;;;;;;;;;;;5031661;28;1220;-69
2022/07/02 00:32:38;;;;;;;;;;;;;;;;;;5044322;28;1447;-69
2022/07/02 00:35:05;;;;;;;;;;;;;;;;;;5051569;28;1955;-69
2022/07/02 00:37:32;;;;;;;;;;;;;;;;;;5052185;28;1298;-69
2022/07/02 00:39:58;;;;;;;;;;;;;;;;;;5052767;28;1106;-69
2022/07/02 00:42:25;;;;;;;;;;;;;;;;;;5052857;28;1115;-69
2022/07/02 00:44:52;;;;;;;;;;;;;;;;;;5052819;28;1052;-69
2022/07/02 00:47:18;;;;;;;;;;;;;;;;;;5051820;28;1375;-69
2022/07/02 00:49:44;;;;;;;;;;;;;;;;;;5051187;28;1305;-69
2022/07/02 00:52:10;;;;;;;;;;;;;;;;;;5052504;28;883;-69
2022/07/02 00:54:37;;;;;;;;;;;;;;;;;;5052507;28;1918;-69
2022/07/02 00:57:03;;;;;;;;;;;;;;;;;;5051836;28;1315;-69
2022/07/02 00:59:31;;;;;;;;;;;;;;;;;;5053118;28;1130;-69
2022/07/02 01:01:57;;;;;;;;;;;;;;;;;;5051261;28;1114;-69
2022/07/02 01:04:23;;;;;;;;;;;;;;;;;;5031766;28;1456;-69
2022/07/02 01:06:50;;;;;;;;;;;;;;;;;;5030322;28;1386;-69
2022/07/02 01:12:00;;;;;;;;;;;;;;;;;;5032297;28;827;-69
2022/07/02 01:14:26;;;;;;;;;;;;;;;;;;5032321;28;1910;-69
2022/07/02 01:16:54;;;;;;;;;;;;;;;;;;5030331;28;1321;-69
2022/07/02 01:19:21;;;;;;;;;;;;;;;;;;5032090;28;862;-69
2022/07/02 01:22:06;;;;;;;;;;;;;;;;;;5032076;28;945;-69
2022/07/02 01:24:33;;;;;;;;;;;;;;;;;;5030908;28;869;-69
2022/07/02 01:26:59;;;;;;;;;;;;;;;;;;5031696;28;1324;-69
2022/07/02 01:29:26;;;;;;;;;;;;;;;;;;5031842;28;1066;-69
2022/07/02 01:31:52;;;;;;;;;;;;;;;;;;5032008;28;1056;-69
2022/07/02 01:34:18;;;;;;;;;;;;;;;;;;5031970;28;1910;-69
2022/07/02 01:36:44;;;;;;;;;;;;;;;;;;5031027;28;1326;-68
2022/07/02 01:39:10;;;;;;;;;;;;;;;;;;5031653;28;918;-68
2022/07/02 01:41:41;;;;;;;;;;;;;;;;;;5031768;28;996;-69
2022/07/02 01:44:07;;;;;;;;;;;;;;;;;;5031764;28;997;-69
2022/07/02 01:46:33;;;;;;;;;;;;;;;;;;5031085;28;1341;-68
2022/07/02 01:48:59;;;;;;;;;;;;;;;;;;5031091;28;1012;-69
2022/07/02 01:51:25;;;;;;;;;;;;;;;;;;5031747;28;1059;-69
2022/07/02 01:53:52;;;;;;;;;;;;;;;;;;5031369;28;1981;-69
2022/07/02 01:56:18;;;;;;;;;;;;;;;;;;5048496;28;1344;-69
2022/07/02 01:58:45;;;;;;;;;;;;;;;;;;5051434;28;987;-69
2022/07/02 02:01:12;;;;;;;;;;;;;;;;;;5051010;28;782;-69
2022/07/02 02:03:38;;;;;;;;;;;;;;;;;;5051059;28;913;-69
2022/07/02 02:06:04;;;;;;;;;;;;;;;;;;5051236;28;1318;-69
2022/07/02 02:08:30;;;;;;;;;;;;;;;;;;5049787;28;1219;-69
2022/07/02 02:10:56;;;;;;;;;;;;;;;;;;5049652;28;1164;-69
2022/07/02 02:13:23;;;;;;;;;;;;;;;;;;5050063;28;1918;-69
2022/07/02 02:15:50;;;;;;;;;;;;;;;;;;5051266;28;1416;-69
2022/07/02 02:18:16;;;;;;;;;;;;;;;;;;5050378;28;894;-68
2022/07/02 02:20:43;;;;;;;;;;;;;;;;;;5050755;28;1072;-69
2022/07/02 02:23:09;;;;;;;;;;;;;;;;;;5051199;28;1251;-69
2022/07/02 02:25:35;;;;;;;;;;;;;;;;;;5051380;28;1103;-68
2022/07/02 02:28:01;;;;;;;;;;;;;;;;;;5050258;28;1351;-68
2022/07/02 02:30:27;;;;;;;;;;;;;;;;;;5049518;28;1456;-69
2022/07/02 02:32:55;;;;;;;;;;;;;;;;;;5050719;28;991;-68
2022/07/02 02:35:21;;;;;;;;;;;;;;;;;;5050888;28;1918;-68
2022/07/02 02:37:47;;;;;;;;;;;;;;;;;;5049913;28;1411;-69
2022/07/02 02:40:13;;;;;;;;;;;;;;;;;;5044013;28;1447;-69
2022/07/02 02:42:40;;;;;;;;;;;;;;;;;;5030972;28;871;-69
2022/07/02 02:45:06;;;;;;;;;;;;;;;;;;5031049;28;1111;-69
2022/07/02 02:47:32;;;;;;;;;;;;;;;;;;5030118;28;1405;-69
2022/07/02 02:50:00;;;;;;;;;;;;;;;;;;5030848;28;1060;-69
2022/07/02 02:52:26;;;;;;;;;;;;;;;;;;5030813;28;804;-68
2022/07/02 02:54:52;;;;;;;;;;;;;;;;;;5038193;28;1911;-69
2022/07/02 02:57:18;;;;;;;;;;;;;;;;;;5050036;28;1363;-68
2022/07/02 02:59:45;;;;;;;;;;;;;;;;;;5049284;28;1143;-68
2022/07/02 03:02:11;;;;;;;;;;;;;;;;;;5050686;28;819;-69
2022/07/02 03:04:37;;;;;;;;;;;;;;;;;;5050795;28;901;-68
2022/07/02 03:07:05;;;;;;;;;;;;;;;;;;5050015;28;1796;-69
2022/07/02 03:09:32;;;;;;;;;;;;;;;;;;5050312;28;933;-68
2022/07/02 03:11:58;;;;;;;;;;;;;;;;;;5051833;28;1091;-68
2022/07/02 03:14:24;;;;;;;;;;;;;;;;;;5054476;28;1920;-68
2022/07/02 03:16:50;;;;;;;;;;;;;;;;;;5053616;28;1388;-68
2022/07/02 03:19:16;;;;;;;;;;;;;;;;;;5054185;28;837;-69
2022/07/02 03:21:42;;;;;;;;;;;;;;;;;;5054310;28;1130;-68
2022/07/02 03:24:10;;;;;;;;;;;;;;;;;;5054461;28;874;-69
2022/07/02 03:26:36;;;;;;;;;;;;;;;;;;5052181;28;1500;-68
2022/07/02 03:29:02;;;;;;;;;;;;;;;;;;5052751;28;1147;-69
2022/07/02 03:31:29;;;;;;;;;;;;;;;;;;5054315;28;848;-68
2022/07/02 03:33:55;;;;;;;;;;;;;;;;;;5053958;28;1918;-68
2022/07/02 03:36:21;;;;;;;;;;;;;;;;;;5054938;28;1391;-69
2022/07/02 03:38:47;;;;;;;;;;;;;;;;;;5055653;28;952;-68
2022/07/02 03:41:15;;;;;;;;;;;;;;;;;;5055855;28;1142;-68
2022/07/02 03:43:41;;;;;;;;;;;;;;;;;;5053910;28;937;-69
2022/07/02 03:46:07;;;;;;;;;;;;;;;;;;5051891;28;1329;-69
2022/07/02 03:48:33;;;;;;;;;;;;;;;;;;5053582;28;991;-68
2022/07/02 03:51:00;;;;;;;;;;;;;;;;;;5053682;28;1067;-69
2022/07/02 03:53:26;;;;;;;;;;;;;;;;;;5053809;28;1103;-69
2022/07/02 03:55:52;;;;;;;;;;;;;;;;;;5037848;28;1977;-68
2022/07/02 03:58:19;;;;;;;;;;;;;;;;;;5032940;28;933;-69
2022/07/02 04:00:46;;;;;;;;;;;;;;;;;;5033609;28;1103;-68
2022/07/02 04:03:12;;;;;;;;;;;;;;;;;;5033658;28;1064;-69
2022/07/02 04:05:38;;;;;;;;;;;;;;;;;;5033618;28;1438;-69
2022/07/02 04:08:04;;;;;;;;;;;;;;;;;;5032639;28;797;-68
2022/07/02 04:10:31;;;;;;;;;;;;;;;;;;5033549;28;921;-68
2022/07/02 04:12:57;;;;;;;;;;;;;;;;;;5033355;28;1100;-68
2022/07/02 04:15:24;;;;;;;;;;;;;;;;;;5033446;28;1910;-68
2022/07/02 04:17:50;;;;;;;;;;;;;;;;;;5032313;28;1425;-69
2022/07/02 04:20:17;;;;;;;;;;;;;;;;;;5033656;28;811;-69
2022/07/02 04:22:43;;;;;;;;;;;;;;;;;;5032958;28;1064;-69
2022/07/02 04:25:09;;;;;;;;;;;;;;;;;;5033374;28;1461;-68
2022/07/02 04:27:35;;;;;;;;;;;;;;;;;;5032524;28;1302;-69
2022/07/02 04:30:01;;;;;;;;;;;;;;;;;;5031882;28;834;-69
2022/07/02 04:32:29;;;;;;;;;;;;;;;;;;5033077;28;1064;-68
2022/07/02 04:34:55;;;;;;;;;;;;;;;;;;5032840;28;1926;-69
2022/07/02 04:37:21;;;;;;;;;;;;;;;;;;5032476;28;1407;-69
2022/07/02 04:39:47;;;;;;;;;;;;;;;;;;5031699;28;1328;-69
2022/07/02 04:42:14;;;;;;;;;;;;;;;;;;5031642;28;1219;-69
2022/07/02 04:44:40;;;;;;;;;;;;;;;;;;5032878;28;988;-69
2022/07/02 04:47:06;;;;;;;;;;;;;;;;;;5030668;28;1285;-69
2022/07/02 04:49:34;;;;;;;;;;;;;;;;;;5033867;28;1448;-69
2022/07/02 04:52:00;;;;;;;;;;;;;;;;;;5034232;28;1514;-68
2022/07/02 04:54:26;;;;;;;;;;;;;;;;;;5036500;28;1977;-69
2022/07/02 04:56:52;;;;;;;;;;;;;;;;;;5051824;28;1298;-69
2022/07/02 04:59:19;;;;;;;;;;;;;;;;;;5052206;28;1110;-69
2022/07/02 05:01:45;;;;;;;;;;;;;;;;;;5052048;28;1091;-69
2022/07/02 05:04:11;;;;;;;;;;;;;;;;;;5052366;28;1001;-69
2022/07/02 05:06:39;;;;;;;;;;;;;;;;;;5051718;28;1316;-69
2022/07/02 05:09:05;;;;;;;;;;;;;;;;;;5050870;28;1302;-69
2022/07/02 05:11:31;;;;;;;;;;;;;;;;;;5052074;28;1122;-68
2022/07/02 05:13:57;;;;;;;;;;;;;;;;;;5052240;28;1075;-69
2022/07/02 05:16:23;;;;;;;;;;;;;;;;;;5050274;28;1914;-69
2022/07/02 05:18:50;;;;;;;;;;;;;;;;;;5052173;28;889;-69
2022/07/02 05:21:16;;;;;;;;;;;;;;;;;;5051674;28;1096;-69
2022/07/02 05:23:44;;;;;;;;;;;;;;;;;;5051878;28;853;-69
2022/07/02 05:26:10;;;;;;;;;;;;;;;;;;5051180;28;1400;-69
2022/07/02 05:28:36;;;;;;;;;;;;;;;;;;5051833;28;933;-69
2022/07/02 05:31:02;;;;;;;;;;;;;;;;;;5051774;28;1079;-69
2022/07/02 05:33:29;;;;;;;;;;;;;;;;;;5051610;28;1056;-68
2022/07/02 05:35:55;;;;;;;;;;;;;;;;;;5050954;28;1910;-69
2022/07/02 05:38:21;;;;;;;;;;;;;;;;;;5051106;28;1110;-69
2022/07/02 05:40:48;;;;;;;;;;;;;;;;;;5050329;28;1157;-68
2022/07/02 05:43:15;;;;;;;;;;;;;;;;;;5051726;28;1226;-69
2022/07/02 05:45:41;;;;;;;;;;;;;;;;;;5051315;28;1389;-69
2022/07/02 05:48:07;;;;;;;;;;;;;;;;;;5049302;28;1548;-69
2022/07/02 05:50:33;;;;;;;;;;;;;;;;;;5051581;28;782;-69
2022/07/02 05:52:59;;;;;;;;;;;;;;;;;;5051264;28;1186;-69
2022/07/02 05:55:25;;;;;;;;;;;;;;;;;;5039095;28;1911;-69
2022/07/02 05:57:53;;;;;;;;;;;;;;;;;;5030604;28;1302;-69
2022/07/02 06:00:19;;;;;;;;;;;;;;;;;;5031309;28;802;-70
2022/07/02 06:02:45;;;;;;;;;;;;;;;;;;5029996;28;1179;-69
2022/07/02 06:07:56;;;;;;;;;;;;;;;;;;5030412;28;1367;-69
2022/07/02 06:10:22;;;;;;;;;;;;;;;;;;5031269;28;889;-69
2022/07/02 06:12:48;;;;;;;;;;;;;;;;;;5031192;28;1122;-69
2022/07/02 06:15:16;;;;;;;;;;;;;;;;;;5029563;28;1973;-70
2022/07/02 06:17:42;;;;;;;;;;;;;;;;;;5028914;28;1399;-69
2022/07/02 06:20:09;;;;;;;;;;;;;;;;;;5031185;28;1119;-69
2022/07/02 06:22:36;;;;;;;;;;;;;;;;;;5031135;28;842;-69
2022/07/02 06:25:02;;;;;;;;;;;;;;;;;;5030743;28;1056;-70
2022/07/02 06:27:30;;;;;;;;;;;;;;;;;;5030788;28;1425;-69
2022/07/02 06:29:56;;;;;;;;;;;;;;;;;;5031071;28;1048;-70
2022/07/02 06:32:24;;;;;;;;;;;;;;;;;;5031062;28;790;-69
2022/07/02 06:34:50;;;;;;;;;;;;;;;;;;5030514;28;1981;-70
2022/07/02 06:37:16;;;;;;;;;;;;;;;;;;5029315;28;1468;-69
2022/07/02 06:39:42;;;;;;;;;;;;;;;;;;5031019;28;1103;-70
2022/07/02 06:42:22;;;;;;;;;;;;;;;;;;5030950;28;1131;-69
2022/07/02 06:44:49;;;;;;;;;;;;;;;;;;5029310;28;1439;-69
2022/07/02 06:47:16;;;;;;;;;;;;;;;;;;5033638;28;1388;-70
2022/07/02 06:49:43;;;;;;;;;;;;;;;;;;5034860;28;1095;-69
2022/07/02 06:52:10;;;;;;;;;;;;;;;;;;5035983;28;1494;-69
2022/07/02 06:54:36;;;;;;;;;;;;;;;;;;5053194;28;1199;-69
2022/07/02 06:57:03;;;;;;;;;;;;;;;;;;5053746;28;1914;-69
2022/07/02 06:59:29;;;;;;;;;;;;;;;;;;5055891;28;909;-70
2022/07/02 07:01:55;;;;;;;;;;;;;;;;;;5054382;28;1060;-69
2022/07/02 07:04:21;;;;;;;;;;;;;;;;;;5022022;28;1426;-69
2022/07/02 07:06:49;;;;;;;;;;;;;;;;;;5014278;28;1357;-70
2022/07/02 07:09:15;;;;;;;;;;;;;;;;;;5014847;28;929;-70
2022/07/02 07:11:41;;;;;;;;;;;;;;;;;;5014464;28;1075;-70
2022/07/02 07:14:07;;;;;;;;;;;;;;;;;;5014742;28;1110;-70
2022/07/02 07:16:34;;;;;;;;;;;;;;;;;;5013649;28;1918;-69
2022/07/02 07:19:00;;;;;;;;;;;;;;;;;;5014584;28;868;-70
2022/07/02 07:21:26;;;;;;;;;;;;;;;;;;5014598;28;1112;-69
2022/07/02 07:23:54;;;;;;;;;;;;;;;;;;5014723;28;1025;-70
2022/07/02 07:26:20;;;;;;;;;;;;;;;;;;5014484;28;1343;-70
2022/07/02 07:28:46;;;;;;;;;;;;;;;;;;5030195;28;1325;-70
2022/07/02 07:31:12;;;;;;;;;;;;;;;;;;5014334;28;1064;-70
2022/07/02 07:33:39;;;;;;;;;;;;;;;;;;5013985;28;1075;-70
2022/07/02 07:36:05;;;;;;;;;;;;;;;;;;5013851;28;1914;-69
2022/07/02 07:38:31;;;;;;;;;;;;;;;;;;5014191;28;993;-70
2022/07/02 07:40:59;;;;;;;;;;;;;;;;;;5014330;28;1080;-70
2022/07/02 07:43:25;;;;;;;;;;;;;;;;;;5014244;28;1131;-70
2022/07/02 07:45:51;;;;;;;;;;;;;;;;;;5029571;28;1405;-70
2022/07/02 07:48:17;;;;;;;;;;;;;;;;;;5013514;28;1106;-70
2022/07/02 07:50:43;;;;;;;;;;;;;;;;;;5014083;28;1209;-69
2022/07/02 07:53:10;;;;;;;;;;;;;;;;;;5013955;28;787;-70
2022/07/02 07:55:36;;;;;;;;;;;;;;;;;;5040224;28;1985;-69
2022/07/02 07:58:03;;;;;;;;;;;;;;;;;;5052125;28;1451;-71
2022/07/02 08:00:30;;;;;;;;;;;;;;;;;;5053238;28;969;-70
2022/07/02 08:02:56;;;;;;;;;;;;;;;;;;5053289;28;1091;-69
2022/07/02 08:05:22;;;;;;;;;;;;;;;;;;5053480;28;1072;-70
2022/07/02 08:07:48;;;;;;;;;;;;;;;;;;5052702;28;1385;-70
2022/07/02 08:10:14;;;;;;;;;;;;;;;;;;5053387;28;870;-70
2022/07/02 08:12:41;;;;;;;;;;;;;;;;;;5051792;28;1171;-70
2022/07/02 08:15:09;;;;;;;;;;;;;;;;;;5053439;28;1048;-70
2022/07/02 08:17:35;;;;;;;;;;;;;;;;;;5050865;28;1991;-70
2022/07/02 08:20:02;;;;;;;;;;;;;;;;;;5053541;28;985;-70
2022/07/02 08:22:28;;;;;;;;;;;;;;;;;;5052867;28;763;-70
2022/07/02 08:24:54;;;;;;;;;;;;;;;;;;5053424;28;963;-70
2022/07/02 08:27:21;;;;;;;;;;;;;;;;;;5052423;28;1408;-70
2022/07/02 08:29:47;;;;;;;;;;;;;;;;;;5053373;28;1431;-70
2022/07/02 08:32:15;;;;;;;;;;;;;;;;;;5053107;28;939;-70
2022/07/02 08:34:41;;;;;;;;;;;;;;;;;;5053284;28;1063;-70
2022/07/02 08:37:07;;;;;;;;;;;;;;;;;;5051023;28;1981;-70
2022/07/02 08:39:33;;;;;;;;;;;;;;;;;;5052838;28;1059;-70
2022/07/02 08:41:59;;;;;;;;;;;;;;;;;;5052875;28;763;-70
2022/07/02 08:44:26;;;;;;;;;;;;;;;;;;5052956;28;945;-70
2022/07/02 08:46:52;;;;;;;;;;;;;;;;;;5052030;28;1357;-70
2022/07/02 08:49:21;;;;;;;;;;;;;;;;;;5046670;28;1462;-71
2022/07/02 08:51:49;;;;;;;;;;;;;;;;;;5033010;28;1044;-71
2022/07/02 08:54:15;;;;;;;;;;;;;;;;;;5035165;28;1275;-71
2022/07/02 08:56:42;;;;;;;;;;;;;;;;;;5051493;28;1976;-71
2022/07/02 08:59:08;;;;;;;;;;;;;;;;;;5052301;28;961;-71
2022/07/02 09:01:34;;;;;;;;;;;;;;;;;;5052713;28;1202;-72
2022/07/02 09:04:00;;;;;;;;;;;;;;;;;;5051105;28;1120;-71
2022/07/02 09:06:29;;;;;;;;;;;;;;;;;;5051172;28;1317;-71
2022/07/02 09:08:55;;;;;;;;;;;;;;;;;;5051446;28;841;-71
2022/07/02 09:11:21;;;;;;;;;;;;;;;;;;5050770;28;988;-71
2022/07/02 09:13:48;;;;;;;;;;;;;;;;;;5052360;28;794;-70
2022/07/02 09:16:14;;;;;;;;;;;;;;;;;;5051599;28;1902;-70
2022/07/02 09:18:40;;;;;;;;;;;;;;;;;;5051921;28;1135;-71
2022/07/02 09:21:06;;;;;;;;;;;;;;;;;;5052550;28;870;-70
2022/07/02 09:23:34;;;;;;;;;;;;;;;;;;5051973;28;1051;-70
2022/07/02 09:26:03;;;;;;;;;;;;;;;;;;5050647;28;1388;-71
2022/07/02 09:28:30;;;;;;;;;;;;;;;;;;5050074;28;1173;-70
2022/07/02 09:31:02;;;;;;;;;;;;;;;;;;5052166;28;1067;-70
2022/07/02 09:33:36;;;;;;;;;;;;;;;;;;5050509;28;1261;-70
2022/07/02 09:36:08;;;;;;;;;;;;;;;;;;5051886;28;1883;-70
2022/07/02 09:38:41;;;;;;;;;;;;;;;;;;5051547;28;1107;-70
2022/07/02 09:41:10;;;;;;;;;;;;;;;;;;5052162;28;1051;-70
2022/07/02 09:43:38;;;;;;;;;;;;;;;;;;5051849;28;1037;-70
2022/07/02 09:46:13;;;;;;;;;;;;;;;;;;5051590;28;1360;-69
2022/07/02 09:48:39;;;;;;;;;;;;;;;;;;5051376;28;964;-69
2022/07/02 09:51:06;;;;;;;;;;;;;;;;;;5052058;28;1068;-69
2022/07/02 09:53:32;;;;;;;;;;;;;;;;;;5050432;28;1546;-69
2022/07/02 09:55:59;;;;;;;;;;;;;;;;;;5035228;28;2026;-70
2022/07/02 09:58:26;;;;;;;;;;;;;;;;;;5031012;28;1071;-70
2022/07/02 10:00:53;;;;;;;;;;;;;;;;;;5031905;28;921;-69
2022/07/02 10:03:20;;;;;;;;;;;;;;;;;;5031667;28;1075;-71
2022/07/02 10:05:46;;;;;;;;;;;;;;;;;;5031581;28;1326;-70
2022/07/02 10:08:12;;;;;;;;;;;;;;;;;;5030972;28;1059;-71
2022/07/02 10:10:39;;;;;;;;;;;;;;;;;;5031580;28;1102;-70
2022/07/02 10:13:07;;;;;;;;;;;;;;;;;;5031805;28;1059;-70
2022/07/02 10:15:33;;;;;;;;;;;;;;;;;;5031583;28;1098;-71
2022/07/02 10:18:00;;;;;;;;;;;;;;;;;;5030709;28;1922;-71
2022/07/02 10:20:27;;;;;;;;;;;;;;;;;;5031544;28;1059;-71
2022/07/02 10:22:53;;;;;;;;;;;;;;;;;;5030214;28;1212;-72
2022/07/02 10:25:19;;;;;;;;;;;;;;;;;;5031460;28;1374;-72
2022/07/02 10:27:46;;;;;;;;;;;;;;;;;;5030448;28;1399;-72
2022/07/02 10:30:14;;;;;;;;;;;;;;;;;;5031403;28;818;-71
2022/07/02 10:32:42;;;;;;;;;;;;;;;;;;5031061;28;1107;-72
2022/07/02 10:35:09;;;;;;;;;;;;;;;;;;5031136;28;805;-71
2022/07/02 10:37:36;;;;;;;;;;;;;;;;;;5030389;28;1989;-72
2022/07/02 10:40:03;;;;;;;;;;;;;;;;;;5031502;28;929;-72
2022/07/02 10:42:37;;;;;;;;;;;;;;;;;;5031405;28;940;-72
2022/07/02 10:45:08;;;;;;;;;;;;;;;;;;5030324;28;1084;-71
2022/07/02 10:47:36;;;;;;;;;;;;;;;;;;5030634;28;1309;-71
2022/07/02 10:50:02;;;;;;;;;;;;;;;;;;5033064;28;1484;-71
2022/07/02 10:52:47;;;;;;;;;;;;;;;;;;5050820;28;933;-71
2022/07/02 10:55:23;;;;;;;;;;;;;;;;;;5051081;28;1145;-73
2022/07/02 10:57:55;;;;;;;;;;;;;;;;;;5050233;28;1967;-72
2022/07/02 11:00:26;;;;;;;;;;;;;;;;;;5050891;28;1075;-72
2022/07/02 11:02:53;;;;;;;;;;;;;;;;;;5051289;28;747;-72
2022/07/02 11:05:19;;;;;;;;;;;;;;;;;;5051567;28;897;-71
2022/07/02 11:07:46;;;;;;;;;;;;;;;;;;5050478;28;1348;-72
2022/07/02 11:10:12;;;;;;;;;;;;;;;;;;5051643;28;1138;-72
2022/07/02 11:12:43;;;;;;;;;;;;;;;;;;5050832;28;977;-72
2022/07/02 11:15:16;;;;;;;;;;;;;;;;;;5050088;28;1509;-72
2022/07/02 11:17:42;;;;;;;;;;;;;;;;;;5050054;28;1975;-71
2022/07/02 11:20:10;;;;;;;;;;;;;;;;;;5050800;28;981;-72
2022/07/02 11:22:37;;;;;;;;;;;;;;;;;;5050710;28;1055;-71
2022/07/02 11:25:03;;;;;;;;;;;;;;;;;;5051243;28;937;-72
2022/07/02 11:27:29;;;;;;;;;;;;;;;;;;5050270;28;1372;-72
2022/07/02 11:29:55;;;;;;;;;;;;;;;;;;5051892;28;1023;-72
2022/07/02 11:32:22;;;;;;;;;;;;;;;;;;5052170;28;1032;-72
2022/07/02 11:34:57;;;;;;;;;;;;;;;;;;5054759;28;977;-73
2022/07/02 11:37:24;;;;;;;;;;;;;;;;;;5054242;28;1914;-72
2022/07/02 11:39:50;;;;;;;;;;;;;;;;;;5053156;28;1249;-73
2022/07/02 11:42:17;;;;;;;;;;;;;;;;;;5054438;28;695;-71
2022/07/02 11:44:43;;;;;;;;;;;;;;;;;;5054289;28;806;-71
2022/07/02 11:47:09;;;;;;;;;;;;;;;;;;5053338;28;1286;-72
2022/07/02 11:49:36;;;;;;;;;;;;;;;;;;5054471;28;1072;-72
2022/07/02 11:52:05;;;;;;;;;;;;;;;;;;5052985;28;1244;-71
2022/07/02 11:54:32;;;;;;;;;;;;;;;;;;5049600;28;1194;-72
2022/07/02 11:56:58;;;;;;;;;;;;;;;;;;5033554;28;1916;-72
2022/07/02 11:59:25;;;;;;;;;;;;;;;;;;5034021;28;870;-71
2022/07/02 12:01:52;;;;;;;;;;;;;;;;;;5032641;28;1264;-71
2022/07/02 12:04:18;;;;;;;;;;;;;;;;;;5033973;28;1056;-71
2022/07/02 12:06:46;;;;;;;;;;;;;;;;;;5033253;28;1300;-71
2022/07/02 12:09:13;;;;;;;;;;;;;;;;;;5032735;28;1216;-72
2022/07/02 12:11:41;;;;;;;;;;;;;;;;;;5033442;28;1063;-72
2022/07/02 12:14:09;;;;;;;;;;;;;;;;;;5033875;28;779;-71
2022/07/02 12:16:35;;;;;;;;;;;;;;;;;;5032928;28;1995;-71
2022/07/02 12:19:02;;;;;;;;;;;;;;;;;;5033900;28;778;-72
2022/07/02 12:21:35;;;;;;;;;;;;;;;;;;5033548;28;907;-71
2022/07/02 12:24:02;;;;;;;;;;;;;;;;;;5033442;28;1071;-72
2022/07/02 12:26:29;;;;;;;;;;;;;;;;;;5031644;28;1424;-72
2022/07/02 12:31:45;;;;;;;;;;;;;;;;;;5033154;28;1003;-72
2022/07/02 12:34:11;;;;;;;;;;;;;;;;;;5031982;28;1168;-72
2022/07/02 12:36:47;;;;;;;;;;;;;;;;;;5031133;28;1946;-72
2022/07/02 12:39:14;;;;;;;;;;;;;;;;;;5033037;28;806;-72
2022/07/02 12:41:41;;;;;;;;;;;;;;;;;;5032932;28;1060;-73
2022/07/02 12:44:15;;;;;;;;;;;;;;;;;;5032651;28;1039;-72
2022/07/02 12:46:43;;;;;;;;;;;;;;;;;;5031927;28;1354;-72
2022/07/02 12:49:13;;;;;;;;;;;;;;;;;;5032872;28;1068;-72
2022/07/02 12:51:41;;;;;;;;;;;;;;;;;;5032862;28;992;-72
2022/07/02 12:54:07;;;;;;;;;;;;;;;;;;5033645;28;2011;-72
2022/07/02 12:56:39;;;;;;;;;;;;;;;;;;5051692;28;1371;-72
2022/07/02 12:59:05;;;;;;;;;;;;;;;;;;5050658;28;1918;-72
2022/07/02 13:01:33;;;;;;;;;;;;;;;;;;5031905;28;1514;-71
2022/07/02 13:03:59;;;;;;;;;;;;;;;;;;5032292;28;1000;-72
2022/07/02 13:06:25;;;;;;;;;;;;;;;;;;5023442;28;1436;-72
2022/07/02 13:08:51;;;;;;;;;;;;;;;;;;5012438;28;1059;-72
2022/07/02 13:11:17;;;;;;;;;;;;;;;;;;5012593;28;1298;-72
2022/07/02 13:13:43;;;;;;;;;;;;;;;;;;5012543;28;897;-73
2022/07/02 13:16:10;;;;;;;;;;;;;;;;;;5011654;28;1322;-72
2022/07/02 13:18:37;;;;;;;;;;;;;;;;;;5012243;28;1927;-73
2022/07/02 13:21:03;;;;;;;;;;;;;;;;;;5012277;28;703;-72
2022/07/02 13:23:30;;;;;;;;;;;;;;;;;;5012348;28;960;-72
2022/07/02 13:25:56;;;;;;;;;;;;;;;;;;5012447;28;1380;-72
2022/07/02 13:28:22;;;;;;;;;;;;;;;;;;5011637;28;905;-73
2022/07/02 13:30:48;;;;;;;;;;;;;;;;;;5012230;28;938;-73
2022/07/02 13:33:15;;;;;;;;;;;;;;;;;;5012089;28;1072;-72
2022/07/02 13:35:42;;;;;;;;;;;;;;;;;;5012297;28;1164;-73
2022/07/02 13:38:08;;;;;;;;;;;;;;;;;;5011219;28;1894;-73
2022/07/02 13:40:35;;;;;;;;;;;;;;;;;;5011970;28;1008;-72
2022/07/02 13:43:01;;;;;;;;;;;;;;;;;;5010656;28;1144;-73
2022/07/02 13:45:27;;;;;;;;;;;;;;;;;;5012063;28;1072;-73
2022/07/02 13:47:53;;;;;;;;;;;;;;;;;;5011159;28;1322;-73
2022/07/02 13:50:19;;;;;;;;;;;;;;;;;;5010380;28;1188;-72
2022/07/02 13:52:47;;;;;;;;;;;;;;;;;;5011861;28;1107;-72
2022/07/02 13:55:13;;;;;;;;;;;;;;;;;;5029787;28;1260;-73
2022/07/02 13:57:39;;;;;;;;;;;;;;;;;;5049161;28;1919;-73
2022/07/02 14:00:06;;;;;;;;;;;;;;;;;;5050942;28;1095;-73
2022/07/02 14:02:38;;;;;;;;;;;;;;;;;;5051308;28;667;-73
2022/07/02 14:05:04;;;;;;;;;;;;;;;;;;5051291;28;1051;-73
2022/07/02 14:07:31;;;;;;;;;;;;;;;;;;5050400;28;1393;-72
2022/07/02 14:09:58;;;;;;;;;;;;;;;;;;5050185;28;1318;-73
2022/07/02 14:12:25;;;;;;;;;;;;;;;;;;5051167;28;933;-73
2022/07/02 14:14:52;;;;;;;;;;;;;;;;;;5051603;28;936;-73
2022/07/02 14:17:18;;;;;;;;;;;;;;;;;;5050216;28;1906;-73
2022/07/02 14:19:44;;;;;;;;;;;;;;;;;;5051403;28;1008;-72
2022/07/02 14:22:14;;;;;;;;;;;;;;;;;;5050924;28;885;-72
2022/07/02 14:24:41;;;;;;;;;;;;;;;;;;5049880;28;1156;-72
2022/07/02 14:27:08;;;;;;;;;;;;;;;;;;5050552;28;1361;-73
2022/07/02 14:29:34;;;;;;;;;;;;;;;;;;5050888;28;751;-74
2022/07/02 14:32:00;;;;;;;;;;;;;;;;;;5051018;28;932;-71
2022/07/02 14:34:27;;;;;;;;;;;;;;;;;;5051227;28;766;-73
2022/07/02 14:36:53;;;;;;;;;;;;;;;;;;5050160;28;1275;-73
2022/07/02 14:39:20;;;;;;;;;;;;;;;;;;5051413;28;1914;-73
2022/07/02 14:41:46;;;;;;;;;;;;;;;;;;5053046;28;1059;-71
2022/07/02 14:44:13;;;;;;;;;;;;;;;;;;5052593;28;964;-72
2022/07/02 14:46:40;;;;;;;;;;;;;;;;;;5050754;28;1442;-72
2022/07/02 14:49:06;;;;;;;;;;;;;;;;;;5049804;28;1112;-72
2022/07/02 14:51:32;;;;;;;;;;;;;;;;;;5051016;28;771;-72
2022/07/02 14:53:59;;;;;;;;;;;;;;;;;;5051150;28;1114;-72
2022/07/02 14:56:26;;;;;;;;;;;;;;;;;;5050762;28;1383;-72
2022/07/02 14:58:52;;;;;;;;;;;;;;;;;;5054146;28;1914;-72
2022/07/02 15:01:20;;;;;;;;;;;;;;;;;;5052711;28;1075;-72
2022/07/02 15:03:46;;;;;;;;;;;;;;;;;;5034897;28;1529;-72
2022/07/02 15:06:12;;;;;;;;;;;;;;;;;;5030684;28;1247;-73
2022/07/02 15:08:40;;;;;;;;;;;;;;;;;;5034820;28;1078;-72
2022/07/02 15:11:06;;;;;;;;;;;;;;;;;;5035092;28;1057;-72
2022/07/02 15:16:13;;;;;;;;;;;;;;;;;;5034484;28;1275;-72
2022/07/02 15:18:40;;;;;;;;;;;;;;;;;;5034847;28;1914;-72
2022/07/02 15:21:09;;;;;;;;;;;;;;;;;;5034990;28;981;-72
2022/07/02 15:23:35;;;;;;;;;;;;;;;;;;5033803;28;1383;-72
2022/07/02 15:26:02;;;;;;;;;;;;;;;;;;5034670;28;1262;-74
2022/07/02 15:28:28;;;;;;;;;;;;;;;;;;5033929;28;842;-73
2022/07/02 15:30:56;;;;;;;;;;;;;;;;;;5035094;28;1056;-72
2022/07/02 15:33:24;;;;;;;;;;;;;;;;;;5034773;28;1064;-72
2022/07/02 15:35:52;;;;;;;;;;;;;;;;;;5035106;28;1291;-72
2022/07/02 15:38:18;;;;;;;;;;;;;;;;;;5034226;28;1918;-73
2022/07/02 15:40:45;;;;;;;;;;;;;;;;;;5035586;28;858;-74
2022/07/02 15:43:11;;;;;;;;;;;;;;;;;;5033366;28;1122;-73
2022/07/02 15:45:37;;;;;;;;;;;;;;;;;;5034567;28;906;-73
2022/07/02 15:48:04;;;;;;;;;;;;;;;;;;5033713;28;1440;-73
2022/07/02 15:50:31;;;;;;;;;;;;;;;;;;5034527;28;1035;-73
2022/07/02 15:53:03;;;;;;;;;;;;;;;;;;5034488;28;791;-72
2022/07/02 15:55:30;;;;;;;;;;;;;;;;;;5046465;28;1221;-72
2022/07/02 15:57:56;;;;;;;;;;;;;;;;;;5053649;28;1918;-74
2022/07/02 16:00:23;;;;;;;;;;;;;;;;;;5054117;28;1000;-73
2022/07/02 16:02:49;;;;;;;;;;;;;;;;;;5054367;28;1063;-72
2022/07/02 16:05:15;;;;;;;;;;;;;;;;;;5052640;28;1372;-73
2022/07/02 16:07:45;;;;;;;;;;;;;;;;;;5053126;28;1278;-73
2022/07/02 16:10:12;;;;;;;;;;;;;;;;;;5053631;28;1071;-73
2022/07/02 16:12:39;;;;;;;;;;;;;;;;;;5053835;28;878;-73
2022/07/02 16:15:05;;;;;;;;;;;;;;;;;;5052474;28;1132;-73
2022/07/02 16:17:32;;;;;;;;;;;;;;;;;;5055815;28;1235;-73
2022/07/02 16:19:58;;;;;;;;;;;;;;;;;;5060232;28;1988;-73
2022/07/02 16:22:24;;;;;;;;;;;;;;;;;;5054197;28;925;-73
2022/07/02 16:24:51;;;;;;;;;;;;;;;;;;5052348;28;1382;-73
2022/07/02 16:27:18;;;;;;;;;;;;;;;;;;5052883;28;1361;-73
2022/07/02 16:29:44;;;;;;;;;;;;;;;;;;5053406;28;894;-73
2022/07/02 16:32:11;;;;;;;;;;;;;;;;;;5051660;28;1131;-73
2022/07/02 16:34:40;;;;;;;;;;;;;;;;;;5053179;28;835;-73
2022/07/02 16:37:08;;;;;;;;;;;;;;;;;;5052437;28;1377;-72
2022/07/02 16:39:35;;;;;;;;;;;;;;;;;;5052197;28;1926;-71
2022/07/02 16:42:01;;;;;;;;;;;;;;;;;;5053301;28;897;-72
2022/07/02 16:44:31;;;;;;;;;;;;;;;;;;5051856;28;1152;-73
2022/07/02 16:46:58;;;;;;;;;;;;;;;;;;5052350;28;1424;-73
2022/07/02 16:49:25;;;;;;;;;;;;;;;;;;5053005;28;1075;-73
2022/07/02 16:51:51;;;;;;;;;;;;;;;;;;5053287;28;1127;-72
2022/07/02 16:54:17;;;;;;;;;;;;;;;;;;5049235;28;1315;-73
2022/07/02 16:56:44;;;;;;;;;;;;;;;;;;5032539;28;1387;-72
2022/07/02 16:59:10;;;;;;;;;;;;;;;;;;5033002;28;1910;-72
2022/07/02 17:01:37;;;;;;;;;;;;;;;;;;5033143;28;1515;-73
2022/07/02 17:04:04;;;;;;;;;;;;;;;;;;5049652;28;1448;-73
2022/07/02 17:06:32;;;;;;;;;;;;;;;;;;5052433;28;1310;-72
2022/07/02 17:08:58;;;;;;;;;;;;;;;;;;5053060;28;925;-73
2022/07/02 17:11:31;;;;;;;;;;;;;;;;;;5052790;28;1055;-72
2022/07/02 17:13:59;;;;;;;;;;;;;;;;;;5052446;28;1071;-72
2022/07/02 17:16:25;;;;;;;;;;;;;;;;;;5050697;28;1410;-73